sensor_id;sensor_type;location;lat;lon;timestamp;P1;durP1;ratioP1;P2;durP2;ratioP2
1603;SDS011;795;49.296;11.348;2023-05-07T00:00:01;2.63;;;2.43;;
1603;SDS011;795;49.296;11.348;2023-05-07T00:02:36;2.80;;;2.60;;
1603;SDS011;795;49.296;11.348;2023-05-07T00:05:04;3.20;;;2.90;;
1603;SDS011;795;49.296;11.348;2023-05-07T00:07:32;6.30;;;3.50;;
1603;SDS011;795;49.296;11.348;2023-05-07T00:09:59;2.70;;;2.50;;
1603;SDS011;795;49.296;11.348;2023-05-07T00:12:26;3.07;;;2.57;;
1603;SDS011;795;49.296;11.348;2023-05-07T00:14:53;3.33;;;2.77;;
1603;SDS011;795;49.296;11.348;2023-05-07T00:17:20;3.50;;;3.20;;
1603;SDS011;795;49.296;11.348;2023-05-07T00:19:47;4.00;;;3.60;;
1603;SDS011;795;49.296;11.348;2023-05-07T00:22:14;2.73;;;2.53;;
1603;SDS011;795;49.296;11.348;2023-05-07T00:24:41;2.73;;;2.60;;
1603;SDS011;795;49.296;11.348;2023-05-07T00:27:08;3.40;;;3.10;;
1603;SDS011;795;49.296;11.348;2023-05-07T00:29:35;3.70;;;3.40;;
1603;SDS011;795;49.296;11.348;2023-05-07T00:32:02;4.17;;;3.87;;
1603;SDS011;795;49.296;11.348;2023-05-07T00:34:30;3.40;;;3.10;;
1603;SDS011;795;49.296;11.348;2023-05-07T00:36:56;4.40;;;4.00;;
1603;SDS011;795;49.296;11.348;2023-05-07T00:39:23;3.63;;;3.40;;
1603;SDS011;795;49.296;11.348;2023-05-07T00:41:50;3.50;;;3.20;;
1603;SDS011;795;49.296;11.348;2023-05-07T00:44:17;4.27;;;3.73;;
1603;SDS011;795;49.296;11.348;2023-05-07T00:46:44;3.67;;;3.37;;
1603;SDS011;795;49.296;11.348;2023-05-07T00:49:15;5.23;;;4.00;;
1603;SDS011;795;49.296;11.348;2023-05-07T00:51:42;4.17;;;3.77;;
1603;SDS011;795;49.296;11.348;2023-05-07T00:54:11;4.30;;;4.00;;
1603;SDS011;795;49.296;11.348;2023-05-07T00:56:39;6.93;;;3.57;;
1603;SDS011;795;49.296;11.348;2023-05-07T00:59:07;4.77;;;4.00;;
1603;SDS011;795;49.296;11.348;2023-05-07T01:01:34;4.83;;;3.80;;
1603;SDS011;795;49.296;11.348;2023-05-07T01:04:02;4.07;;;3.67;;
1603;SDS011;795;49.296;11.348;2023-05-07T01:06:30;3.67;;;3.37;;
1603;SDS011;795;49.296;11.348;2023-05-07T01:09:00;3.90;;;3.60;;
1603;SDS011;795;49.296;11.348;2023-05-07T01:11:28;8.47;;;4.20;;
1603;SDS011;795;49.296;11.348;2023-05-07T01:13:54;4.33;;;4.03;;
1603;SDS011;795;49.296;11.348;2023-05-07T01:16:25;4.97;;;4.57;;
1603;SDS011;795;49.296;11.348;2023-05-07T01:18:53;4.97;;;4.57;;
1603;SDS011;795;49.296;11.348;2023-05-07T01:21:22;4.67;;;4.33;;
1603;SDS011;795;49.296;11.348;2023-05-07T01:23:53;5.07;;;4.60;;
1603;SDS011;795;49.296;11.348;2023-05-07T01:26:22;5.37;;;4.87;;
1603;SDS011;795;49.296;11.348;2023-05-07T01:28:49;5.07;;;4.67;;
1603;SDS011;795;49.296;11.348;2023-05-07T01:31:16;5.03;;;4.63;;
1603;SDS011;795;49.296;11.348;2023-05-07T01:33:45;5.47;;;4.97;;
1603;SDS011;795;49.296;11.348;2023-05-07T01:36:17;6.07;;;4.80;;
1603;SDS011;795;49.296;11.348;2023-05-07T01:38:47;5.27;;;4.70;;
1603;SDS011;795;49.296;11.348;2023-05-07T01:41:14;5.20;;;4.70;;
1603;SDS011;795;49.296;11.348;2023-05-07T01:43:41;5.07;;;4.57;;
1603;SDS011;795;49.296;11.348;2023-05-07T01:46:09;6.53;;;5.97;;
1603;SDS011;795;49.296;11.348;2023-05-07T01:48:39;6.73;;;4.60;;
1603;SDS011;795;49.296;11.348;2023-05-07T01:51:07;6.13;;;4.83;;
1603;SDS011;795;49.296;11.348;2023-05-07T01:53:35;5.90;;;5.40;;
1603;SDS011;795;49.296;11.348;2023-05-07T01:56:03;6.53;;;5.10;;
1603;SDS011;795;49.296;11.348;2023-05-07T01:58:31;5.63;;;5.13;;
1603;SDS011;795;49.296;11.348;2023-05-07T02:00:58;5.93;;;5.40;;
1603;SDS011;795;49.296;11.348;2023-05-07T02:03:26;5.87;;;5.37;;
1603;SDS011;795;49.296;11.348;2023-05-07T02:05:53;5.33;;;4.87;;
1603;SDS011;795;49.296;11.348;2023-05-07T02:08:20;6.03;;;5.53;;
1603;SDS011;795;49.296;11.348;2023-05-07T02:10:47;6.03;;;5.53;;
1603;SDS011;795;49.296;11.348;2023-05-07T02:13:14;6.50;;;6.00;;
1603;SDS011;795;49.296;11.348;2023-05-07T02:15:41;6.03;;;5.53;;
1603;SDS011;795;49.296;11.348;2023-05-07T02:18:08;5.83;;;5.23;;
1603;SDS011;795;49.296;11.348;2023-05-07T02:20:35;6.30;;;4.93;;
1603;SDS011;795;49.296;11.348;2023-05-07T02:23:02;7.10;;;5.80;;
1603;SDS011;795;49.296;11.348;2023-05-07T02:25:29;9.37;;;5.43;;
1603;SDS011;795;49.296;11.348;2023-05-07T02:27:56;6.07;;;5.57;;
1603;SDS011;795;49.296;11.348;2023-05-07T02:30:24;7.73;;;6.13;;
1603;SDS011;795;49.296;11.348;2023-05-07T02:32:51;8.00;;;5.67;;
1603;SDS011;795;49.296;11.348;2023-05-07T02:35:18;6.90;;;5.73;;
1603;SDS011;795;49.296;11.348;2023-05-07T02:37:45;6.27;;;5.77;;
1603;SDS011;795;49.296;11.348;2023-05-07T02:40:12;5.73;;;5.33;;
1603;SDS011;795;49.296;11.348;2023-05-07T02:42:39;5.70;;;5.20;;
1603;SDS011;795;49.296;11.348;2023-05-07T02:45:06;7.13;;;5.77;;
1603;SDS011;795;49.296;11.348;2023-05-07T02:47:35;7.83;;;5.60;;
1603;SDS011;795;49.296;11.348;2023-05-07T02:50:02;6.67;;;5.93;;
1603;SDS011;795;49.296;11.348;2023-05-07T02:52:30;7.73;;;7.03;;
1603;SDS011;795;49.296;11.348;2023-05-07T02:54:57;7.23;;;5.90;;
1603;SDS011;795;49.296;11.348;2023-05-07T02:57:24;6.73;;;6.20;;
1603;SDS011;795;49.296;11.348;2023-05-07T02:59:51;7.40;;;6.80;;
1603;SDS011;795;49.296;11.348;2023-05-07T03:02:18;7.57;;;6.77;;
1603;SDS011;795;49.296;11.348;2023-05-07T03:04:45;7.80;;;7.10;;
1603;SDS011;795;49.296;11.348;2023-05-07T03:07:12;8.70;;;7.90;;
1603;SDS011;795;49.296;11.348;2023-05-07T03:09:38;8.00;;;7.10;;
1603;SDS011;795;49.296;11.348;2023-05-07T03:12:06;7.30;;;6.53;;
1603;SDS011;795;49.296;11.348;2023-05-07T03:14:33;8.03;;;7.20;;
1603;SDS011;795;49.296;11.348;2023-05-07T03:17:00;7.97;;;7.30;;
1603;SDS011;795;49.296;11.348;2023-05-07T03:19:26;8.37;;;7.60;;
1603;SDS011;795;49.296;11.348;2023-05-07T03:21:53;9.27;;;8.37;;
1603;SDS011;795;49.296;11.348;2023-05-07T03:24:21;8.33;;;7.63;;
1603;SDS011;795;49.296;11.348;2023-05-07T03:26:48;9.20;;;8.33;;
1603;SDS011;795;49.296;11.348;2023-05-07T03:29:15;8.27;;;7.57;;
1603;SDS011;795;49.296;11.348;2023-05-07T03:31:43;9.17;;;8.27;;
1603;SDS011;795;49.296;11.348;2023-05-07T03:34:10;9.87;;;8.90;;
1603;SDS011;795;49.296;11.348;2023-05-07T03:36:37;8.53;;;7.67;;
1603;SDS011;795;49.296;11.348;2023-05-07T03:39:03;9.20;;;8.30;;
1603;SDS011;795;49.296;11.348;2023-05-07T03:41:31;9.13;;;8.23;;
1603;SDS011;795;49.296;11.348;2023-05-07T03:43:59;13.20;;;8.70;;
1603;SDS011;795;49.296;11.348;2023-05-07T03:46:25;10.37;;;8.17;;
1603;SDS011;795;49.296;11.348;2023-05-07T03:48:54;10.07;;;9.23;;
1603;SDS011;795;49.296;11.348;2023-05-07T03:51:21;9.53;;;8.50;;
1603;SDS011;795;49.296;11.348;2023-05-07T03:53:48;13.27;;;8.73;;
1603;SDS011;795;49.296;11.348;2023-05-07T03:56:15;13.23;;;8.30;;
1603;SDS011;795;49.296;11.348;2023-05-07T03:58:44;9.73;;;8.73;;
1603;SDS011;795;49.296;11.348;2023-05-07T04:01:11;10.07;;;9.07;;
1603;SDS011;795;49.296;11.348;2023-05-07T04:03:38;10.27;;;9.20;;
1603;SDS011;795;49.296;11.348;2023-05-07T04:06:05;9.63;;;8.83;;
1603;SDS011;795;49.296;11.348;2023-05-07T04:08:32;9.57;;;8.63;;
1603;SDS011;795;49.296;11.348;2023-05-07T04:10:59;11.30;;;9.60;;
1603;SDS011;795;49.296;11.348;2023-05-07T04:13:26;10.83;;;9.83;;
1603;SDS011;795;49.296;11.348;2023-05-07T04:15:54;10.60;;;9.60;;
1603;SDS011;795;49.296;11.348;2023-05-07T04:18:22;11.43;;;10.27;;
1603;SDS011;795;49.296;11.348;2023-05-07T04:20:49;10.70;;;9.70;;
1603;SDS011;795;49.296;11.348;2023-05-07T04:23:16;12.30;;;9.53;;
1603;SDS011;795;49.296;11.348;2023-05-07T04:25:42;8.90;;;8.00;;
1603;SDS011;795;49.296;11.348;2023-05-07T04:28:09;11.80;;;10.60;;
1603;SDS011;795;49.296;11.348;2023-05-07T04:30:37;11.53;;;9.87;;
1603;SDS011;795;49.296;11.348;2023-05-07T04:33:05;10.60;;;9.60;;
1603;SDS011;795;49.296;11.348;2023-05-07T04:35:33;10.33;;;9.30;;
1603;SDS011;795;49.296;11.348;2023-05-07T04:38:00;10.37;;;8.97;;
1603;SDS011;795;49.296;11.348;2023-05-07T04:40:27;10.03;;;9.13;;
1603;SDS011;795;49.296;11.348;2023-05-07T04:42:54;10.20;;;9.23;;
1603;SDS011;795;49.296;11.348;2023-05-07T04:45:21;11.33;;;9.53;;
1603;SDS011;795;49.296;11.348;2023-05-07T04:47:48;10.63;;;9.53;;
1603;SDS011;795;49.296;11.348;2023-05-07T04:50:16;11.23;;;10.23;;
1603;SDS011;795;49.296;11.348;2023-05-07T04:52:45;10.20;;;9.30;;
1603;SDS011;795;49.296;11.348;2023-05-07T04:55:12;9.90;;;9.10;;
1603;SDS011;795;49.296;11.348;2023-05-07T04:57:38;26.97;;;9.67;;
1603;SDS011;795;49.296;11.348;2023-05-07T05:00:06;10.57;;;9.50;;
1603;SDS011;795;49.296;11.348;2023-05-07T05:02:35;12.27;;;8.43;;
1603;SDS011;795;49.296;11.348;2023-05-07T05:05:02;11.20;;;10.10;;
1603;SDS011;795;49.296;11.348;2023-05-07T05:07:30;12.27;;;11.13;;
1603;SDS011;795;49.296;11.348;2023-05-07T05:09:57;11.60;;;9.50;;
1603;SDS011;795;49.296;11.348;2023-05-07T05:12:24;10.13;;;9.03;;
1603;SDS011;795;49.296;11.348;2023-05-07T05:14:51;12.37;;;9.43;;
1603;SDS011;795;49.296;11.348;2023-05-07T05:17:18;9.97;;;9.07;;
1603;SDS011;795;49.296;11.348;2023-05-07T05:19:45;9.60;;;8.60;;
1603;SDS011;795;49.296;11.348;2023-05-07T05:22:12;9.70;;;8.70;;
1603;SDS011;795;49.296;11.348;2023-05-07T05:24:39;9.63;;;8.70;;
1603;SDS011;795;49.296;11.348;2023-05-07T05:27:05;9.90;;;8.90;;
1603;SDS011;795;49.296;11.348;2023-05-07T05:29:32;10.60;;;9.60;;
1603;SDS011;795;49.296;11.348;2023-05-07T05:31:59;9.20;;;8.40;;
1603;SDS011;795;49.296;11.348;2023-05-07T05:34:26;9.93;;;8.50;;
1603;SDS011;795;49.296;11.348;2023-05-07T05:36:53;9.53;;;8.63;;
1603;SDS011;795;49.296;11.348;2023-05-07T05:39:21;9.87;;;8.87;;
1603;SDS011;795;49.296;11.348;2023-05-07T05:41:49;11.57;;;9.50;;
1603;SDS011;795;49.296;11.348;2023-05-07T05:44:16;9.53;;;8.63;;
1603;SDS011;795;49.296;11.348;2023-05-07T05:46:42;9.50;;;8.60;;
1603;SDS011;795;49.296;11.348;2023-05-07T05:49:10;10.17;;;9.17;;
1603;SDS011;795;49.296;11.348;2023-05-07T05:51:37;9.53;;;8.47;;
1603;SDS011;795;49.296;11.348;2023-05-07T05:54:04;10.13;;;8.47;;
1603;SDS011;795;49.296;11.348;2023-05-07T05:56:30;9.07;;;8.27;;
1603;SDS011;795;49.296;11.348;2023-05-07T05:58:57;10.80;;;8.97;;
1603;SDS011;795;49.296;11.348;2023-05-07T06:01:25;8.27;;;7.50;;
1603;SDS011;795;49.296;11.348;2023-05-07T06:03:52;8.60;;;7.83;;
1603;SDS011;795;49.296;11.348;2023-05-07T06:06:18;9.10;;;8.23;;
1603;SDS011;795;49.296;11.348;2023-05-07T06:08:45;9.63;;;8.70;;
1603;SDS011;795;49.296;11.348;2023-05-07T06:11:12;11.20;;;8.67;;
1603;SDS011;795;49.296;11.348;2023-05-07T06:13:39;9.17;;;8.27;;
1603;SDS011;795;49.296;11.348;2023-05-07T06:16:06;9.90;;;8.90;;
1603;SDS011;795;49.296;11.348;2023-05-07T06:18:33;9.70;;;8.80;;
1603;SDS011;795;49.296;11.348;2023-05-07T06:21:02;10.27;;;9.27;;
1603;SDS011;795;49.296;11.348;2023-05-07T06:23:29;10.00;;;8.90;;
1603;SDS011;795;49.296;11.348;2023-05-07T06:25:56;9.40;;;8.47;;
1603;SDS011;795;49.296;11.348;2023-05-07T06:28:23;9.23;;;8.37;;
1603;SDS011;795;49.296;11.348;2023-05-07T06:30:50;10.10;;;9.13;;
1603;SDS011;795;49.296;11.348;2023-05-07T06:33:17;11.00;;;9.83;;
1603;SDS011;795;49.296;11.348;2023-05-07T06:35:45;9.57;;;8.13;;
1603;SDS011;795;49.296;11.348;2023-05-07T06:38:12;9.03;;;8.23;;
1603;SDS011;795;49.296;11.348;2023-05-07T06:40:39;9.10;;;8.13;;
1603;SDS011;795;49.296;11.348;2023-05-07T06:43:06;9.90;;;9.10;;
1603;SDS011;795;49.296;11.348;2023-05-07T06:45:33;10.57;;;9.27;;
1603;SDS011;795;49.296;11.348;2023-05-07T06:48:00;8.60;;;7.80;;
1603;SDS011;795;49.296;11.348;2023-05-07T06:50:27;9.83;;;8.93;;
1603;SDS011;795;49.296;11.348;2023-05-07T06:52:53;8.60;;;7.33;;
1603;SDS011;795;49.296;11.348;2023-05-07T06:55:20;10.50;;;9.47;;
1603;SDS011;795;49.296;11.348;2023-05-07T06:57:47;9.97;;;8.53;;
1603;SDS011;795;49.296;11.348;2023-05-07T07:00:14;8.97;;;8.13;;
1603;SDS011;795;49.296;11.348;2023-05-07T07:02:42;10.10;;;9.20;;
1603;SDS011;795;49.296;11.348;2023-05-07T07:05:09;9.10;;;8.20;;
1603;SDS011;795;49.296;11.348;2023-05-07T07:07:36;9.50;;;8.70;;
1603;SDS011;795;49.296;11.348;2023-05-07T07:10:03;11.20;;;8.40;;
1603;SDS011;795;49.296;11.348;2023-05-07T07:12:31;9.03;;;8.23;;
1603;SDS011;795;49.296;11.348;2023-05-07T07:14:58;8.07;;;7.30;;
1603;SDS011;795;49.296;11.348;2023-05-07T07:17:25;8.43;;;7.63;;
1603;SDS011;795;49.296;11.348;2023-05-07T07:19:52;9.13;;;8.13;;
1603;SDS011;795;49.296;11.348;2023-05-07T07:22:19;9.90;;;9.00;;
1603;SDS011;795;49.296;11.348;2023-05-07T07:24:46;8.63;;;7.80;;
1603;SDS011;795;49.296;11.348;2023-05-07T07:27:13;8.40;;;7.60;;
1603;SDS011;795;49.296;11.348;2023-05-07T07:29:40;9.90;;;7.60;;
1603;SDS011;795;49.296;11.348;2023-05-07T07:32:06;7.83;;;7.13;;
1603;SDS011;795;49.296;11.348;2023-05-07T07:34:34;7.90;;;7.10;;
1603;SDS011;795;49.296;11.348;2023-05-07T07:37:01;8.50;;;7.70;;
1603;SDS011;795;49.296;11.348;2023-05-07T07:39:31;7.63;;;6.80;;
1603;SDS011;795;49.296;11.348;2023-05-07T07:41:59;7.70;;;6.97;;
1603;SDS011;795;49.296;11.348;2023-05-07T07:44:27;10.73;;;7.07;;
1603;SDS011;795;49.296;11.348;2023-05-07T07:46:54;8.37;;;7.20;;
1603;SDS011;795;49.296;11.348;2023-05-07T07:49:22;7.33;;;6.73;;
1603;SDS011;795;49.296;11.348;2023-05-07T07:51:48;7.27;;;6.70;;
1603;SDS011;795;49.296;11.348;2023-05-07T07:54:15;8.63;;;7.83;;
1603;SDS011;795;49.296;11.348;2023-05-07T07:56:42;8.47;;;7.67;;
1603;SDS011;795;49.296;11.348;2023-05-07T07:59:09;10.73;;;9.63;;
1603;SDS011;795;49.296;11.348;2023-05-07T08:03:42;10.63;;;9.67;;
1603;SDS011;795;49.296;11.348;2023-05-07T08:06:09;7.77;;;7.07;;
1603;SDS011;795;49.296;11.348;2023-05-07T08:08:36;8.03;;;7.33;;
1603;SDS011;795;49.296;11.348;2023-05-07T08:11:03;8.33;;;7.63;;
1603;SDS011;795;49.296;11.348;2023-05-07T08:13:31;8.90;;;8.00;;
1603;SDS011;795;49.296;11.348;2023-05-07T08:15:58;7.60;;;6.90;;
1603;SDS011;795;49.296;11.348;2023-05-07T08:18:25;7.87;;;7.17;;
1603;SDS011;795;49.296;11.348;2023-05-07T08:20:54;7.10;;;6.50;;
1603;SDS011;795;49.296;11.348;2023-05-07T08:23:21;7.37;;;6.67;;
1603;SDS011;795;49.296;11.348;2023-05-07T08:25:49;8.73;;;7.93;;
1603;SDS011;795;49.296;11.348;2023-05-07T08:28:17;8.20;;;7.40;;
1603;SDS011;795;49.296;11.348;2023-05-07T08:30:45;8.13;;;7.37;;
1603;SDS011;795;49.296;11.348;2023-05-07T08:33:12;7.03;;;6.33;;
1603;SDS011;795;49.296;11.348;2023-05-07T08:35:39;7.17;;;6.47;;
1603;SDS011;795;49.296;11.348;2023-05-07T08:38:06;6.87;;;6.30;;
1603;SDS011;795;49.296;11.348;2023-05-07T08:40:37;6.77;;;6.17;;
1603;SDS011;795;49.296;11.348;2023-05-07T08:43:07;6.87;;;6.27;;
1603;SDS011;795;49.296;11.348;2023-05-07T08:45:34;9.33;;;5.70;;
1603;SDS011;795;49.296;11.348;2023-05-07T08:48:02;9.10;;;7.07;;
1603;SDS011;795;49.296;11.348;2023-05-07T08:50:40;6.83;;;6.33;;
1603;SDS011;795;49.296;11.348;2023-05-07T08:53:07;10.57;;;6.50;;
1603;SDS011;795;49.296;11.348;2023-05-07T08:55:34;6.50;;;6.00;;
1603;SDS011;795;49.296;11.348;2023-05-07T08:58:01;6.73;;;5.80;;
1603;SDS011;795;49.296;11.348;2023-05-07T09:00:28;5.60;;;5.10;;
1603;SDS011;795;49.296;11.348;2023-05-07T09:02:55;6.80;;;6.20;;
1603;SDS011;795;49.296;11.348;2023-05-07T09:05:22;6.30;;;5.80;;
1603;SDS011;795;49.296;11.348;2023-05-07T09:07:49;5.60;;;5.10;;
1603;SDS011;795;49.296;11.348;2023-05-07T09:10:20;5.87;;;5.23;;
1603;SDS011;795;49.296;11.348;2023-05-07T09:12:47;4.97;;;4.57;;
1603;SDS011;795;49.296;11.348;2023-05-07T09:15:14;5.67;;;5.27;;
1603;SDS011;795;49.296;11.348;2023-05-07T09:17:41;6.93;;;6.03;;
1603;SDS011;795;49.296;11.348;2023-05-07T09:20:10;5.87;;;5.37;;
1603;SDS011;795;49.296;11.348;2023-05-07T09:22:37;7.00;;;5.53;;
1603;SDS011;795;49.296;11.348;2023-05-07T09:25:08;6.97;;;6.30;;
1603;SDS011;795;49.296;11.348;2023-05-07T09:27:36;6.20;;;5.57;;
1603;SDS011;795;49.296;11.348;2023-05-07T09:30:04;7.70;;;6.40;;
1603;SDS011;795;49.296;11.348;2023-05-07T09:32:36;6.77;;;6.13;;
1603;SDS011;795;49.296;11.348;2023-05-07T09:35:13;5.47;;;5.03;;
1603;SDS011;795;49.296;11.348;2023-05-07T09:37:47;5.93;;;5.53;;
1603;SDS011;795;49.296;11.348;2023-05-07T09:40:27;6.00;;;5.40;;
1603;SDS011;795;49.296;11.348;2023-05-07T09:43:01;6.77;;;6.17;;
1603;SDS011;795;49.296;11.348;2023-05-07T09:45:39;6.47;;;5.80;;
1603;SDS011;795;49.296;11.348;2023-05-07T09:48:07;5.83;;;5.33;;
1603;SDS011;795;49.296;11.348;2023-05-07T09:50:36;6.53;;;5.93;;
1603;SDS011;795;49.296;11.348;2023-05-07T09:53:17;11.07;;;5.67;;
1603;SDS011;795;49.296;11.348;2023-05-07T09:55:46;5.60;;;5.10;;
1603;SDS011;795;49.296;11.348;2023-05-07T09:58:14;5.87;;;5.37;;
1603;SDS011;795;49.296;11.348;2023-05-07T10:00:45;6.60;;;5.40;;
1603;SDS011;795;49.296;11.348;2023-05-07T10:03:12;7.20;;;5.90;;
1603;SDS011;795;49.296;11.348;2023-05-07T10:05:42;6.13;;;5.63;;
1603;SDS011;795;49.296;11.348;2023-05-07T10:08:10;7.23;;;6.63;;
1603;SDS011;795;49.296;11.348;2023-05-07T10:10:38;7.10;;;6.50;;
1603;SDS011;795;49.296;11.348;2023-05-07T10:13:07;4.73;;;4.33;;
1603;SDS011;795;49.296;11.348;2023-05-07T10:15:37;6.37;;;5.87;;
1603;SDS011;795;49.296;11.348;2023-05-07T10:18:04;6.20;;;5.37;;
1603;SDS011;795;49.296;11.348;2023-05-07T10:20:34;6.03;;;5.53;;
1603;SDS011;795;49.296;11.348;2023-05-07T10:23:05;5.90;;;5.27;;
1603;SDS011;795;49.296;11.348;2023-05-07T10:25:34;5.87;;;5.37;;
1603;SDS011;795;49.296;11.348;2023-05-07T10:28:04;6.10;;;5.70;;
1603;SDS011;795;49.296;11.348;2023-05-07T10:30:49;6.10;;;5.50;;
1603;SDS011;795;49.296;11.348;2023-05-07T10:33:45;6.00;;;5.10;;
1603;SDS011;795;49.296;11.348;2023-05-07T10:36:17;4.93;;;4.53;;
1603;SDS011;795;49.296;11.348;2023-05-07T10:38:46;5.70;;;5.17;;
1603;SDS011;795;49.296;11.348;2023-05-07T10:41:13;4.93;;;4.53;;
1603;SDS011;795;49.296;11.348;2023-05-07T10:43:43;5.70;;;5.20;;
1603;SDS011;795;49.296;11.348;2023-05-07T10:46:18;5.00;;;4.60;;
1603;SDS011;795;49.296;11.348;2023-05-07T10:51:31;5.10;;;4.50;;
1603;SDS011;795;49.296;11.348;2023-05-07T10:56:40;4.57;;;4.07;;
1603;SDS011;795;49.296;11.348;2023-05-07T11:01:53;4.70;;;4.30;;
1603;SDS011;795;49.296;11.348;2023-05-07T11:04:28;5.70;;;5.10;;
1603;SDS011;795;49.296;11.348;2023-05-07T11:07:10;4.47;;;4.07;;
1603;SDS011;795;49.296;11.348;2023-05-07T11:09:56;4.97;;;4.57;;
1603;SDS011;795;49.296;11.348;2023-05-07T11:15:06;5.53;;;4.57;;
1603;SDS011;795;49.296;11.348;2023-05-07T11:17:52;5.47;;;4.13;;
1603;SDS011;795;49.296;11.348;2023-05-07T11:28:36;4.93;;;4.50;;
1603;SDS011;795;49.296;11.348;2023-05-07T11:31:05;4.30;;;3.97;;
1603;SDS011;795;49.296;11.348;2023-05-07T11:33:34;6.60;;;4.90;;
1603;SDS011;795;49.296;11.348;2023-05-07T11:36:04;4.97;;;4.47;;
1603;SDS011;795;49.296;11.348;2023-05-07T11:38:35;6.03;;;4.30;;
1603;SDS011;795;49.296;11.348;2023-05-07T11:41:05;4.63;;;4.20;;
1603;SDS011;795;49.296;11.348;2023-05-07T11:43:33;6.63;;;5.37;;
1603;SDS011;795;49.296;11.348;2023-05-07T11:46:06;6.30;;;4.00;;
1603;SDS011;795;49.296;11.348;2023-05-07T11:48:37;3.63;;;3.33;;
1603;SDS011;795;49.296;11.348;2023-05-07T11:51:05;2.60;;;2.40;;
1603;SDS011;795;49.296;11.348;2023-05-07T11:53:36;2.70;;;2.50;;
1603;SDS011;795;49.296;11.348;2023-05-07T11:56:10;3.90;;;3.57;;
1603;SDS011;795;49.296;11.348;2023-05-07T11:58:40;4.33;;;3.93;;
1603;SDS011;795;49.296;11.348;2023-05-07T12:01:10;4.17;;;3.77;;
1603;SDS011;795;49.296;11.348;2023-05-07T12:03:40;6.40;;;4.40;;
1603;SDS011;795;49.296;11.348;2023-05-07T12:06:11;4.27;;;3.97;;
1603;SDS011;795;49.296;11.348;2023-05-07T12:08:41;4.30;;;3.70;;
1603;SDS011;795;49.296;11.348;2023-05-07T12:11:21;3.80;;;3.50;;
1603;SDS011;795;49.296;11.348;2023-05-07T12:13:51;4.63;;;4.23;;
1603;SDS011;795;49.296;11.348;2023-05-07T12:16:25;3.87;;;3.43;;
1603;SDS011;795;49.296;11.348;2023-05-07T12:18:53;5.90;;;4.10;;
1603;SDS011;795;49.296;11.348;2023-05-07T12:21:21;7.23;;;3.73;;
1603;SDS011;795;49.296;11.348;2023-05-07T12:23:50;5.27;;;3.93;;
1603;SDS011;795;49.296;11.348;2023-05-07T12:26:18;4.50;;;4.10;;
1603;SDS011;795;49.296;11.348;2023-05-07T12:28:47;3.70;;;3.40;;
1603;SDS011;795;49.296;11.348;2023-05-07T12:31:13;3.43;;;3.23;;
1603;SDS011;795;49.296;11.348;2023-05-07T12:33:42;4.47;;;3.43;;
1603;SDS011;795;49.296;11.348;2023-05-07T12:36:11;3.70;;;3.40;;
1603;SDS011;795;49.296;11.348;2023-05-07T12:38:39;4.00;;;3.70;;
1603;SDS011;795;49.296;11.348;2023-05-07T12:41:08;3.40;;;3.20;;
1603;SDS011;795;49.296;11.348;2023-05-07T12:43:39;3.77;;;3.47;;
1603;SDS011;795;49.296;11.348;2023-05-07T12:46:06;3.50;;;3.20;;
1603;SDS011;795;49.296;11.348;2023-05-07T12:48:37;5.67;;;4.03;;
1603;SDS011;795;49.296;11.348;2023-05-07T12:51:09;4.43;;;4.13;;
1603;SDS011;795;49.296;11.348;2023-05-07T12:53:41;4.73;;;3.30;;
1603;SDS011;795;49.296;11.348;2023-05-07T12:56:09;3.20;;;3.00;;
1603;SDS011;795;49.296;11.348;2023-05-07T12:58:36;3.20;;;2.43;;
1603;SDS011;795;49.296;11.348;2023-05-07T13:01:04;2.70;;;2.50;;
1603;SDS011;795;49.296;11.348;2023-05-07T13:03:36;6.20;;;3.80;;
1603;SDS011;795;49.296;11.348;2023-05-07T13:06:07;2.80;;;2.60;;
1603;SDS011;795;49.296;11.348;2023-05-07T13:08:39;2.83;;;2.63;;
1603;SDS011;795;49.296;11.348;2023-05-07T13:11:13;3.80;;;2.40;;
1603;SDS011;795;49.296;11.348;2023-05-07T13:13:43;4.13;;;2.70;;
1603;SDS011;795;49.296;11.348;2023-05-07T13:16:10;2.77;;;2.60;;
1603;SDS011;795;49.296;11.348;2023-05-07T13:18:38;3.43;;;3.10;;
1603;SDS011;795;49.296;11.348;2023-05-07T13:21:07;4.10;;;2.27;;
1603;SDS011;795;49.296;11.348;2023-05-07T13:23:34;2.83;;;2.63;;
1603;SDS011;795;49.296;11.348;2023-05-07T13:26:01;3.13;;;2.93;;
1603;SDS011;795;49.296;11.348;2023-05-07T13:28:36;2.80;;;2.60;;
1603;SDS011;795;49.296;11.348;2023-05-07T13:31:03;4.27;;;3.00;;
1603;SDS011;795;49.296;11.348;2023-05-07T13:33:30;3.33;;;2.70;;
1603;SDS011;795;49.296;11.348;2023-05-07T13:35:57;2.90;;;2.70;;
1603;SDS011;795;49.296;11.348;2023-05-07T13:38:28;3.53;;;2.90;;
1603;SDS011;795;49.296;11.348;2023-05-07T13:40:55;2.50;;;2.20;;
1603;SDS011;795;49.296;11.348;2023-05-07T13:43:24;3.27;;;2.70;;
1603;SDS011;795;49.296;11.348;2023-05-07T13:45:51;4.10;;;2.80;;
1603;SDS011;795;49.296;11.348;2023-05-07T13:48:18;2.60;;;2.40;;
1603;SDS011;795;49.296;11.348;2023-05-07T13:50:46;3.20;;;2.67;;
1603;SDS011;795;49.296;11.348;2023-05-07T13:53:13;2.67;;;2.47;;
1603;SDS011;795;49.296;11.348;2023-05-07T13:55:44;2.73;;;2.47;;
1603;SDS011;795;49.296;11.348;2023-05-07T13:58:11;2.30;;;2.20;;
1603;SDS011;795;49.296;11.348;2023-05-07T14:00:38;3.53;;;2.80;;
1603;SDS011;795;49.296;11.348;2023-05-07T14:03:05;3.20;;;3.00;;
1603;SDS011;795;49.296;11.348;2023-05-07T14:05:32;3.43;;;3.13;;
1603;SDS011;795;49.296;11.348;2023-05-07T14:07:59;6.23;;;3.30;;
1603;SDS011;795;49.296;11.348;2023-05-07T14:10:26;3.33;;;3.03;;
1603;SDS011;795;49.296;11.348;2023-05-07T14:12:53;2.70;;;2.50;;
1603;SDS011;795;49.296;11.348;2023-05-07T14:15:21;3.50;;;2.50;;
1603;SDS011;795;49.296;11.348;2023-05-07T14:17:48;3.33;;;2.70;;
1603;SDS011;795;49.296;11.348;2023-05-07T14:20:15;3.90;;;2.80;;
1603;SDS011;795;49.296;11.348;2023-05-07T14:22:42;3.30;;;3.00;;
1603;SDS011;795;49.296;11.348;2023-05-07T14:25:09;4.43;;;2.90;;
1603;SDS011;795;49.296;11.348;2023-05-07T14:27:36;3.33;;;3.03;;
1603;SDS011;795;49.296;11.348;2023-05-07T14:30:03;3.20;;;2.93;;
1603;SDS011;795;49.296;11.348;2023-05-07T14:32:32;3.03;;;2.80;;
1603;SDS011;795;49.296;11.348;2023-05-07T14:35:00;3.43;;;3.13;;
1603;SDS011;795;49.296;11.348;2023-05-07T14:37:27;7.77;;;3.57;;
1603;SDS011;795;49.296;11.348;2023-05-07T14:39:54;3.50;;;3.20;;
1603;SDS011;795;49.296;11.348;2023-05-07T14:42:21;3.73;;;3.43;;
1603;SDS011;795;49.296;11.348;2023-05-07T14:44:48;3.83;;;3.53;;
1603;SDS011;795;49.296;11.348;2023-05-07T14:47:15;3.60;;;3.40;;
1603;SDS011;795;49.296;11.348;2023-05-07T14:49:45;4.13;;;3.73;;
1603;SDS011;795;49.296;11.348;2023-05-07T14:52:11;4.00;;;3.70;;
1603;SDS011;795;49.296;11.348;2023-05-07T14:54:39;3.73;;;3.47;;
1603;SDS011;795;49.296;11.348;2023-05-07T14:57:06;4.63;;;4.23;;
1603;SDS011;795;49.296;11.348;2023-05-07T14:59:35;4.27;;;3.87;;
1603;SDS011;795;49.296;11.348;2023-05-07T15:02:04;4.20;;;3.80;;
1603;SDS011;795;49.296;11.348;2023-05-07T15:04:34;4.10;;;3.80;;
1603;SDS011;795;49.296;11.348;2023-05-07T15:07:01;4.57;;;4.17;;
1603;SDS011;795;49.296;11.348;2023-05-07T15:09:28;4.33;;;3.97;;
1603;SDS011;795;49.296;11.348;2023-05-07T15:11:56;3.33;;;3.10;;
1603;SDS011;795;49.296;11.348;2023-05-07T15:14:23;3.87;;;3.57;;
1603;SDS011;795;49.296;11.348;2023-05-07T15:16:49;4.27;;;3.87;;
1603;SDS011;795;49.296;11.348;2023-05-07T15:19:16;3.43;;;3.13;;
1603;SDS011;795;49.296;11.348;2023-05-07T15:21:43;3.77;;;3.47;;
1603;SDS011;795;49.296;11.348;2023-05-07T15:24:10;3.83;;;3.53;;
1603;SDS011;795;49.296;11.348;2023-05-07T15:26:37;4.27;;;3.97;;
1603;SDS011;795;49.296;11.348;2023-05-07T15:29:04;5.17;;;4.40;;
1603;SDS011;795;49.296;11.348;2023-05-07T15:31:36;4.10;;;3.70;;
1603;SDS011;795;49.296;11.348;2023-05-07T15:34:04;3.60;;;3.40;;
1603;SDS011;795;49.296;11.348;2023-05-07T15:36:32;4.70;;;4.30;;
1603;SDS011;795;49.296;11.348;2023-05-07T15:38:58;4.10;;;3.70;;